createdAt,value
2018-02-07T00:02:22.744Z,6.27
2018-02-07T00:04:50.542Z,6.40
2018-02-07T00:07:19.398Z,4.77
2018-02-07T00:09:48.538Z,6.37
2018-02-07T00:12:17.214Z,5.00
2018-02-07T00:14:51.320Z,5.60
2018-02-07T00:17:20.316Z,5.20
2018-02-07T00:19:51.564Z,4.13
2018-02-07T00:22:23.278Z,4.63
2018-02-07T00:24:51.396Z,5.20
2018-02-07T00:27:25.177Z,4.40
2018-02-07T00:29:53.749Z,5.00
2018-02-07T00:32:22.982Z,3.43
2018-02-07T00:34:52.430Z,3.93
2018-02-07T00:37:29.093Z,5.27
2018-02-07T00:39:57.115Z,4.20
2018-02-07T00:42:27.934Z,5.37
2018-02-07T00:44:55.903Z,4.87
2018-02-07T00:47:23.792Z,5.40
2018-02-07T00:49:53.229Z,5.97
2018-02-07T00:52:21.052Z,5.90
2018-02-07T00:54:48.907Z,6.53
2018-02-07T00:57:16.865Z,4.43
2018-02-07T00:59:45.803Z,6.10
2018-02-07T01:02:13.876Z,5.47
2018-02-07T01:04:47.606Z,6.23
2018-02-07T01:07:22.719Z,5.63
2018-02-07T01:09:50.787Z,5.90
2018-02-07T01:12:19.537Z,5.20
2018-02-07T01:14:48.355Z,5.60
2018-02-07T01:17:17.166Z,5.13
2018-02-07T01:19:47.305Z,5.57
2018-02-07T01:22:16.929Z,5.17
2018-02-07T01:24:45.581Z,4.60
2018-02-07T01:27:13.537Z,5.30
2018-02-07T01:29:41.605Z,5.50
2018-02-07T01:32:10.091Z,5.63
2018-02-07T01:34:38.214Z,5.87
2018-02-07T01:37:09.515Z,5.60
2018-02-07T01:39:37.690Z,5.70
2018-02-07T01:42:07.401Z,5.10
2018-02-07T01:44:35.878Z,6.20
2018-02-07T01:47:03.652Z,7.67
2018-02-07T01:49:31.711Z,8.30
2018-02-07T01:52:00.202Z,7.07
2018-02-07T01:54:28.246Z,6.17
2018-02-07T01:56:56.913Z,8.97
2018-02-07T01:59:25.505Z,8.10
2018-02-07T02:01:54.176Z,9.60
2018-02-07T02:04:23.061Z,9.17
2018-02-07T02:06:52.684Z,9.40
2018-02-07T02:09:21.511Z,8.30
2018-02-07T02:11:50.265Z,9.70
2018-02-07T02:14:18.088Z,7.30
2018-02-07T02:16:48.043Z,6.60
2018-02-07T02:19:16.155Z,6.40
2018-02-07T02:21:47.802Z,6.93
2018-02-07T02:24:16.498Z,5.47
2018-02-07T02:26:49.857Z,8.40
2018-02-07T02:29:18.502Z,8.93
2018-02-07T02:31:48.475Z,9.40
2018-02-07T02:34:21.616Z,10.20
2018-02-07T02:36:52.380Z,9.53
2018-02-07T02:39:23.241Z,8.63
2018-02-07T02:41:54.888Z,9.93
2018-02-07T02:44:27.705Z,8.40
2018-02-07T02:52:19.001Z,6.40
2018-02-07T02:54:51.937Z,6.00
2018-02-07T02:57:28.136Z,4.10
2018-02-07T03:12:37.256Z,7.10
2018-02-07T03:15:08.249Z,8.83
2018-02-07T03:17:43.887Z,8.27
2018-02-07T03:20:26.342Z,9.37
2018-02-07T03:23:23.645Z,10.90
2018-02-07T03:25:53.389Z,7.03
2018-02-07T03:31:18.198Z,10.60
2018-02-07T03:33:48.717Z,9.53
2018-02-07T03:36:21.066Z,10.70
2018-02-07T03:44:28.786Z,6.90
2018-02-07T03:47:02.849Z,9.03
2018-02-07T03:52:16.232Z,10.53
2018-02-07T03:54:54.078Z,8.73
2018-02-07T03:57:37.890Z,8.60
2018-02-07T04:00:12.494Z,6.63
2018-02-07T04:02:52.371Z,9.07
2018-02-07T04:06:09.359Z,7.23
2018-02-07T04:18:00.476Z,5.90
2018-02-07T04:20:30.015Z,6.47
2018-02-07T04:30:40.028Z,8.57
2018-02-07T04:33:13.094Z,11.43
2018-02-07T04:35:43.658Z,10.57
2018-02-07T04:38:15.475Z,10.27
2018-02-07T04:40:47.125Z,10.80
2018-02-07T04:43:32.834Z,10.87
2018-02-07T04:46:04.334Z,11.00
2018-02-07T04:48:42.240Z,11.27
2018-02-07T04:51:11.697Z,22.80
2018-02-07T04:53:44.476Z,29.13
2018-02-07T04:56:18.488Z,13.50
2018-02-07T04:58:48.856Z,18.43
2018-02-07T05:01:18.725Z,13.87
2018-02-07T05:03:52.638Z,13.60
2018-02-07T05:06:23.738Z,14.00
2018-02-07T05:08:54.879Z,12.10
2018-02-07T05:11:28.051Z,10.03
2018-02-07T05:14:09.460Z,12.67
2018-02-07T05:16:41.191Z,11.13
2018-02-07T05:19:09.744Z,11.93
2018-02-07T05:21:37.712Z,12.50
2018-02-07T05:24:06.190Z,11.90
2018-02-07T05:26:34.199Z,11.70
2018-02-07T05:29:02.150Z,11.17
2018-02-07T05:31:32.673Z,8.17
2018-02-07T05:34:01.358Z,9.57
2018-02-07T05:36:29.124Z,7.70
2018-02-07T05:38:57.196Z,7.20
2018-02-07T05:41:26.051Z,7.17
2018-02-07T05:43:54.170Z,5.83
2018-02-07T05:46:22.027Z,4.63
2018-02-07T05:48:50.086Z,5.53
2018-02-07T05:51:18.158Z,5.37
2018-02-07T05:53:47.153Z,6.20
2018-02-07T05:56:16.042Z,5.40
2018-02-07T05:58:45.015Z,7.27
2018-02-07T06:01:13.108Z,10.70
2018-02-07T06:03:41.103Z,11.57
2018-02-07T06:06:08.917Z,9.43
2018-02-07T06:08:36.829Z,11.53
2018-02-07T06:11:04.883Z,9.73
2018-02-07T06:13:32.776Z,9.37
2018-02-07T06:16:00.683Z,10.90
2018-02-07T06:18:28.653Z,11.50
2018-02-07T06:20:56.741Z,10.67
2018-02-07T06:23:24.808Z,12.13
2018-02-07T06:25:52.600Z,13.40
2018-02-07T06:28:20.470Z,12.83
2018-02-07T06:30:48.434Z,9.90
2018-02-07T06:33:16.428Z,11.17
2018-02-07T06:35:44.572Z,15.93
2018-02-07T06:38:12.854Z,14.83
2018-02-07T06:40:40.928Z,13.93
2018-02-07T06:43:08.996Z,14.13
2018-02-07T06:45:37.072Z,12.67
2018-02-07T06:48:05.402Z,14.10
2018-02-07T06:50:33.472Z,14.27
2018-02-07T06:53:01.442Z,15.57
2018-02-07T06:55:29.331Z,15.13
2018-02-07T06:57:57.298Z,14.10
2018-02-07T07:00:26.391Z,10.97
2018-02-07T07:02:54.255Z,11.03
2018-02-07T07:05:23.349Z,13.87
2018-02-07T07:07:51.317Z,13.57
2018-02-07T07:10:19.291Z,13.33
2018-02-07T07:12:47.182Z,10.90
2018-02-07T07:15:15.168Z,10.07
2018-02-07T07:17:43.851Z,13.17
2018-02-07T07:20:11.908Z,13.10
2018-02-07T07:22:40.129Z,13.43
2018-02-07T07:25:08.104Z,14.00
2018-02-07T07:27:37.472Z,15.77
2018-02-07T07:30:05.497Z,17.27
2018-02-07T07:32:36.274Z,14.70
2018-02-07T07:35:04.222Z,16.67
2018-02-07T07:37:37.849Z,17.10
2018-02-07T07:40:06.977Z,16.80
2018-02-07T07:42:34.908Z,15.73
2018-02-07T07:45:02.813Z,17.50
2018-02-07T07:47:31.860Z,17.60
2018-02-07T07:49:59.960Z,15.80
2018-02-07T07:52:28.024Z,16.47
2018-02-07T07:54:56.056Z,16.50
2018-02-07T07:57:27.724Z,14.60
2018-02-07T07:59:55.882Z,15.63
2018-02-07T08:02:23.758Z,15.90
2018-02-07T08:04:51.732Z,16.67
2018-02-07T08:07:19.544Z,12.70
2018-02-07T08:09:47.492Z,12.90
2018-02-07T08:12:16.694Z,13.20
2018-02-07T08:14:44.639Z,14.93
2018-02-07T08:17:12.607Z,13.20
2018-02-07T08:19:40.315Z,13.90
2018-02-07T08:22:09.386Z,13.80
2018-02-07T08:24:37.316Z,13.87
2018-02-07T08:27:05.399Z,15.93
2018-02-07T08:29:33.492Z,13.20
2018-02-07T08:32:01.572Z,15.53
2018-02-07T08:34:29.643Z,14.17
2018-02-07T08:36:57.717Z,14.83
2018-02-07T08:39:25.636Z,14.70
2018-02-07T08:41:53.526Z,13.60
2018-02-07T08:44:22.219Z,16.97
2018-02-07T08:46:50.618Z,16.90
2018-02-07T08:49:18.690Z,14.90
2018-02-07T08:51:46.557Z,13.80
2018-02-07T08:54:14.596Z,13.70
2018-02-07T08:56:42.699Z,14.50
2018-02-07T08:59:10.774Z,15.90
2018-02-07T09:01:38.793Z,13.07
2018-02-07T09:04:06.704Z,14.60
2018-02-07T09:06:34.648Z,13.30
2018-02-07T09:09:02.675Z,13.10
2018-02-07T09:11:30.883Z,15.30
2018-02-07T09:13:59.002Z,15.07
2018-02-07T09:16:27.066Z,16.47
2018-02-07T09:18:55.133Z,16.53
2018-02-07T09:21:23.201Z,17.90
2018-02-07T09:23:51.202Z,16.30
2018-02-07T09:26:19.182Z,16.47
2018-02-07T09:28:47.026Z,17.67
2018-02-07T09:31:15.224Z,16.33
2018-02-07T09:33:43.433Z,15.37
2018-02-07T09:36:11.406Z,67.57
2018-02-07T09:38:39.171Z,23.13
2018-02-07T09:41:07.135Z,19.53
2018-02-07T09:43:35.104Z,16.13
2018-02-07T09:46:02.929Z,17.40
2018-02-07T09:48:30.810Z,17.30
2018-02-07T09:50:59.752Z,19.10
2018-02-07T09:53:27.727Z,17.97
2018-02-07T09:55:55.609Z,18.60
2018-02-07T09:58:23.426Z,18.50
2018-02-07T10:00:52.261Z,17.23
2018-02-07T10:03:20.287Z,19.80
2018-02-07T10:05:48.378Z,17.10
2018-02-07T10:08:16.316Z,18.13
2018-02-07T10:10:48.084Z,16.60
2018-02-07T10:13:16.056Z,17.97
2018-02-07T10:15:44.175Z,17.30
2018-02-07T10:18:12.114Z,18.07
2018-02-07T10:20:40.119Z,19.00
2018-02-07T10:23:08.147Z,17.73
2018-02-07T10:25:36.262Z,19.43
2018-02-07T10:28:04.332Z,20.80
2018-02-07T10:30:32.271Z,19.70
2018-02-07T10:33:00.139Z,19.00
2018-02-07T10:35:29.202Z,17.37
2018-02-07T10:37:57.234Z,21.60
2018-02-07T10:40:25.164Z,19.43
2018-02-07T10:42:53.173Z,21.67
2018-02-07T10:45:21.245Z,23.37
2018-02-07T10:47:49.290Z,21.97
2018-02-07T10:50:17.290Z,21.50
2018-02-07T10:52:45.328Z,23.27
2018-02-07T10:55:13.416Z,21.70
2018-02-07T10:57:41.501Z,19.87
2018-02-07T11:00:10.190Z,18.67
2018-02-07T11:02:38.261Z,19.83
2018-02-07T11:05:06.290Z,18.30
2018-02-07T11:07:34.263Z,21.77
2018-02-07T11:10:02.022Z,19.50
2018-02-07T11:12:30.045Z,20.13
2018-02-07T11:14:58.276Z,19.80
2018-02-07T11:17:26.413Z,19.63
2018-02-07T11:19:54.536Z,17.50
2018-02-07T11:22:22.528Z,16.67
2018-02-07T11:24:50.499Z,20.10
2018-02-07T11:27:18.639Z,18.33
2018-02-07T11:29:46.744Z,21.80
2018-02-07T11:32:14.870Z,19.87
2018-02-07T11:34:42.875Z,22.03
2018-02-07T11:37:10.929Z,21.70
2018-02-07T11:39:39.022Z,19.13
2018-02-07T11:42:07.088Z,20.70
2018-02-07T11:44:35.831Z,18.17
2018-02-07T11:47:03.844Z,20.97
2018-02-07T11:49:32.145Z,19.83
2018-02-07T11:52:00.209Z,18.33
2018-02-07T11:54:28.049Z,19.17
2018-02-07T11:56:56.151Z,21.00
2018-02-07T11:59:24.648Z,17.67
2018-02-07T12:01:52.703Z,18.00
2018-02-07T12:04:22.234Z,17.07
2018-02-07T12:06:50.266Z,17.87
2018-02-07T12:09:18.335Z,17.83
2018-02-07T12:11:46.294Z,18.03
2018-02-07T12:14:14.359Z,19.27
2018-02-07T12:16:42.449Z,19.53
2018-02-07T12:19:10.316Z,17.20
2018-02-07T12:21:39.208Z,18.83
2018-02-07T12:24:07.284Z,18.17
2018-02-07T12:26:35.986Z,19.33
2018-02-07T12:29:04.055Z,21.10
2018-02-07T12:31:31.977Z,18.10
2018-02-07T12:33:59.898Z,19.03
2018-02-07T12:36:28.136Z,18.33
2018-02-07T12:38:56.209Z,18.23
2018-02-07T12:41:24.325Z,18.17
2018-02-07T12:43:52.259Z,19.77
2018-02-07T12:46:20.331Z,15.80
2018-02-07T12:48:48.325Z,17.33
2018-02-07T12:51:16.390Z,17.70
2018-02-07T12:53:44.130Z,17.00
2018-02-07T12:56:12.097Z,17.50
2018-02-07T12:58:39.988Z,17.57
2018-02-07T13:01:07.934Z,17.73
2018-02-07T13:03:35.923Z,19.27
2018-02-07T13:06:03.991Z,17.53
2018-02-07T13:08:32.432Z,18.30
2018-02-07T13:11:00.559Z,21.90
2018-02-07T13:13:28.393Z,22.80
2018-02-07T13:15:56.265Z,19.87
2018-02-07T13:18:24.262Z,19.60
2018-02-07T13:20:52.296Z,22.33
2018-02-07T13:23:20.408Z,20.77
2018-02-07T13:25:48.554Z,16.10
2018-02-07T13:28:16.654Z,15.60
2018-02-07T13:30:45.600Z,15.30
2018-02-07T13:33:14.527Z,16.57
2018-02-07T13:35:42.406Z,18.67
2018-02-07T13:38:10.435Z,15.67
2018-02-07T13:40:38.403Z,16.90
2018-02-07T13:43:06.746Z,16.07
2018-02-07T13:45:34.739Z,15.20
2018-02-07T13:48:03.665Z,17.40
2018-02-07T13:50:31.623Z,14.73
2018-02-07T13:52:59.725Z,15.97
2018-02-07T13:55:27.810Z,16.33
2018-02-07T13:57:55.834Z,15.50
2018-02-07T14:00:23.768Z,17.50
2018-02-07T14:02:51.534Z,15.50
2018-02-07T14:05:19.372Z,18.47
2018-02-07T14:07:47.439Z,17.67
2018-02-07T14:10:15.482Z,13.53
2018-02-07T14:12:44.165Z,33.50
2018-02-07T14:15:12.238Z,17.70
2018-02-07T14:17:40.240Z,15.67
2018-02-07T14:20:09.275Z,16.43
2018-02-07T14:22:37.294Z,16.20
2018-02-07T14:25:05.455Z,16.77
2018-02-07T14:27:33.362Z,16.93
2018-02-07T14:30:02.442Z,18.43
2018-02-07T14:32:30.617Z,17.00
2018-02-07T14:34:59.779Z,18.03
2018-02-07T14:37:28.590Z,16.40
2018-02-07T14:39:56.464Z,19.33
2018-02-07T14:42:24.349Z,17.73
2018-02-07T14:44:52.412Z,17.30
2018-02-07T14:47:20.487Z,17.37
2018-02-07T14:49:48.430Z,18.00
2018-02-07T14:52:16.524Z,19.37
2018-02-07T14:54:45.147Z,18.07
2018-02-07T14:57:13.261Z,17.33
2018-02-07T14:59:41.223Z,17.07
2018-02-07T15:02:12.767Z,16.70
2018-02-07T15:04:40.836Z,18.10
2018-02-07T15:07:09.825Z,17.40
2018-02-07T15:09:37.845Z,16.07
2018-02-07T15:12:05.934Z,17.83
2018-02-07T15:14:34.189Z,18.07
2018-02-07T15:17:02.059Z,17.23
2018-02-07T15:19:30.095Z,18.57
2018-02-07T15:21:58.201Z,19.03
2018-02-07T15:24:26.142Z,19.37
2018-02-07T15:26:54.261Z,19.67
2018-02-07T15:29:22.121Z,19.50
2018-02-07T15:31:50.041Z,18.67
2018-02-07T15:34:17.908Z,18.80
2018-02-07T15:36:46.017Z,19.23
2018-02-07T15:39:13.891Z,18.50
2018-02-07T15:41:42.034Z,17.70
2018-02-07T15:44:09.826Z,16.50
2018-02-07T15:46:38.543Z,18.00
2018-02-07T15:49:06.587Z,15.93
2018-02-07T15:51:34.448Z,15.83
2018-02-07T15:54:02.369Z,16.20
2018-02-07T15:56:30.284Z,17.63
2018-02-07T15:58:58.360Z,17.53
2018-02-07T16:01:26.430Z,18.00
2018-02-07T16:03:54.506Z,18.47
2018-02-07T16:06:22.572Z,16.03
2018-02-07T16:08:51.294Z,18.00
2018-02-07T16:11:21.071Z,16.97
2018-02-07T16:13:50.075Z,16.57
2018-02-07T16:16:18.143Z,16.63
2018-02-07T16:18:47.017Z,18.43
2018-02-07T16:21:15.081Z,18.83
2018-02-07T16:23:44.197Z,18.80
2018-02-07T16:26:12.273Z,19.50
2018-02-07T16:28:41.775Z,18.33
2018-02-07T16:31:10.553Z,19.40
2018-02-07T16:33:38.718Z,17.73
2018-02-07T16:36:06.810Z,18.97
2018-02-07T16:38:35.626Z,19.20
2018-02-07T16:41:04.299Z,22.73
2018-02-07T16:43:32.659Z,24.53
2018-02-07T16:46:01.761Z,21.47
2018-02-07T16:48:29.795Z,19.73
2018-02-07T16:50:58.279Z,16.83
2018-02-07T16:53:26.151Z,16.30
2018-02-07T16:55:55.252Z,17.00
2018-02-07T16:58:23.347Z,16.23
2018-02-07T17:00:52.440Z,15.90
2018-02-07T17:03:20.466Z,16.73
2018-02-07T17:05:50.143Z,18.50
2018-02-07T17:08:19.409Z,16.57
2018-02-07T17:10:48.625Z,16.37
2018-02-07T17:13:16.801Z,18.20
2018-02-07T17:15:44.964Z,17.60
2018-02-07T17:18:13.398Z,18.50
2018-02-07T17:20:41.853Z,18.70
2018-02-07T17:23:09.987Z,20.30
2018-02-07T17:25:39.162Z,18.70
2018-02-07T17:28:08.920Z,17.80
2018-02-07T17:30:39.351Z,20.37
2018-02-07T17:33:08.525Z,19.33
2018-02-07T17:35:36.663Z,18.63
2018-02-07T17:38:05.099Z,15.77
2018-02-07T17:40:33.793Z,15.47
2018-02-07T17:43:02.051Z,16.10
2018-02-07T17:45:30.843Z,15.67
2018-02-07T17:47:58.731Z,15.10
2018-02-07T17:50:26.740Z,17.40
2018-02-07T17:52:54.748Z,18.27
2018-02-07T17:55:22.626Z,18.97
2018-02-07T17:57:51.509Z,19.70
2018-02-07T18:00:19.722Z,17.50
2018-02-07T18:02:47.950Z,19.00
2018-02-07T18:05:16.092Z,18.67
2018-02-07T18:07:45.036Z,19.17
2018-02-07T18:10:12.882Z,20.40
2018-02-07T18:12:41.157Z,17.70
2018-02-07T18:15:09.569Z,23.37
2018-02-07T18:17:39.470Z,19.63
2018-02-07T18:20:08.462Z,19.07
2018-02-07T18:22:37.823Z,17.07
2018-02-07T18:25:06.569Z,18.13
2018-02-07T18:27:34.623Z,16.07
2018-02-07T18:30:02.561Z,17.37
2018-02-07T18:32:31.154Z,14.50
2018-02-07T18:34:59.328Z,15.90
2018-02-07T18:37:27.707Z,30.90
2018-02-07T18:39:55.723Z,53.67
2018-02-07T18:42:23.804Z,30.50
2018-02-07T18:44:52.234Z,20.70
2018-02-07T18:47:20.323Z,20.27
2018-02-07T18:49:48.479Z,21.90
2018-02-07T18:52:16.792Z,17.43
2018-02-07T18:54:44.846Z,17.57
2018-02-07T18:57:13.320Z,17.80
2018-02-07T18:59:41.225Z,18.80
2018-02-07T19:02:09.453Z,19.07
2018-02-07T19:04:37.531Z,24.93
2018-02-07T19:07:05.616Z,25.57
2018-02-07T19:09:34.484Z,26.60
2018-02-07T19:12:02.957Z,28.67
2018-02-07T19:14:31.938Z,25.40
2018-02-07T19:17:00.332Z,25.30
2018-02-07T19:19:28.174Z,22.97
2018-02-07T19:21:56.330Z,19.63
2018-02-07T19:24:24.655Z,21.60
2018-02-07T19:26:53.415Z,24.47
2018-02-07T19:29:22.770Z,21.40
2018-02-07T19:31:53.625Z,18.33
2018-02-07T19:34:21.677Z,20.23
2018-02-07T19:36:49.747Z,17.67
2018-02-07T19:39:17.822Z,16.63
2018-02-07T19:41:46.076Z,17.23
2018-02-07T19:44:15.494Z,15.80
2018-02-07T19:46:43.576Z,16.87
2018-02-07T19:49:18.463Z,16.40
2018-02-07T19:51:46.840Z,17.40
2018-02-07T19:54:16.579Z,17.80
2018-02-07T19:56:44.773Z,17.20
2018-02-07T19:59:14.174Z,18.30
2018-02-07T20:01:44.972Z,17.63
2018-02-07T20:04:13.157Z,17.43
2018-02-07T20:06:41.719Z,18.33
2018-02-07T20:09:12.512Z,19.17
2018-02-07T20:11:41.080Z,17.40
2018-02-07T20:14:09.259Z,18.67
2018-02-07T20:16:38.314Z,17.33
2018-02-07T20:19:09.777Z,17.80
2018-02-07T20:21:38.500Z,18.97
2018-02-07T20:24:06.398Z,17.70
2018-02-07T20:26:34.381Z,19.70
2018-02-07T20:29:03.328Z,17.90
2018-02-07T20:31:32.017Z,17.77
2018-02-07T20:33:59.963Z,20.10
2018-02-07T20:36:28.574Z,17.77
2018-02-07T20:38:58.040Z,19.27
2018-02-07T20:41:26.144Z,18.47
2018-02-07T20:43:54.316Z,18.90
2018-02-07T20:46:23.414Z,19.43
2018-02-07T20:48:51.315Z,17.97
2018-02-07T20:51:20.271Z,15.07
2018-02-07T20:53:48.193Z,18.67
2018-02-07T20:56:16.313Z,18.90
2018-02-07T20:58:44.333Z,18.23
2018-02-07T21:01:12.348Z,18.83
2018-02-07T21:03:40.237Z,19.27
2018-02-07T21:06:08.398Z,19.40
2018-02-07T21:08:36.225Z,20.77
2018-02-07T21:11:04.412Z,19.00
2018-02-07T21:13:32.408Z,17.90
2018-02-07T21:16:00.487Z,17.33
2018-02-07T21:18:28.612Z,17.50
2018-02-07T21:20:56.479Z,17.33
2018-02-07T21:23:25.593Z,18.20
2018-02-07T21:25:55.065Z,19.93
2018-02-07T21:28:23.094Z,19.70
2018-02-07T21:30:51.050Z,18.50
2018-02-07T21:33:18.953Z,19.00
2018-02-07T21:35:47.311Z,18.27
2018-02-07T21:38:15.482Z,20.00
2018-02-07T21:40:43.448Z,19.30
2018-02-07T21:43:12.387Z,18.73
2018-02-07T21:45:41.095Z,20.00
2018-02-07T21:48:09.611Z,21.17
2018-02-07T21:50:38.508Z,23.33
2018-02-07T21:53:06.453Z,20.90
2018-02-07T21:55:34.545Z,21.37
2018-02-07T21:58:02.809Z,22.97
2018-02-07T22:00:30.897Z,22.07
2018-02-07T22:03:00.458Z,22.20
2018-02-07T22:05:28.558Z,21.60
2018-02-07T22:07:56.334Z,20.53
2018-02-07T22:10:24.437Z,21.70
2018-02-07T22:12:53.283Z,22.30
2018-02-07T22:15:21.462Z,20.00
2018-02-07T22:17:50.019Z,22.20
2018-02-07T22:20:18.066Z,21.77
2018-02-07T22:22:46.919Z,20.33
2018-02-07T22:25:14.948Z,20.83
2018-02-07T22:27:43.008Z,23.83
2018-02-07T22:30:11.706Z,20.10
2018-02-07T22:32:39.633Z,20.53
2018-02-07T22:35:07.613Z,22.43
2018-02-07T22:37:35.431Z,21.20
2018-02-07T22:40:03.628Z,20.83
2018-02-07T22:42:31.689Z,19.83
2018-02-07T22:44:59.755Z,21.67
2018-02-07T22:47:27.819Z,20.87
2018-02-07T22:49:55.940Z,24.00
2018-02-07T22:52:23.935Z,22.33
2018-02-07T22:54:52.061Z,21.03
2018-02-07T22:57:20.139Z,20.57
2018-02-07T22:59:48.081Z,22.20
2018-02-07T23:02:16.152Z,21.83
2018-02-07T23:04:43.963Z,20.80
2018-02-07T23:07:12.807Z,22.17
2018-02-07T23:09:41.699Z,22.17
2018-02-07T23:12:09.541Z,20.73
2018-02-07T23:14:37.364Z,21.80
2018-02-07T23:17:05.273Z,22.13
2018-02-07T23:19:34.623Z,20.30
2018-02-07T23:22:02.644Z,20.70
2018-02-07T23:24:30.823Z,21.47
2018-02-07T23:26:58.835Z,23.37
2018-02-07T23:29:27.706Z,20.13
2018-02-07T23:31:55.568Z,21.33
2018-02-07T23:34:23.465Z,19.47
2018-02-07T23:36:51.535Z,20.60
2018-02-07T23:39:20.151Z,20.20
2018-02-07T23:41:49.114Z,20.53
2018-02-07T23:44:17.034Z,21.50
2018-02-07T23:46:44.906Z,19.03
2018-02-07T23:49:12.793Z,19.97
2018-02-07T23:51:40.685Z,20.13
2018-02-07T23:54:08.552Z,21.20
2018-02-07T23:56:36.313Z,17.97
2018-02-07T23:59:04.337Z,20.17
